createdAt,value
2023-03-26T00:01:37.483Z,25.67
2023-03-26T00:04:09.231Z,27.20
2023-03-26T00:06:40.337Z,26.80
2023-03-26T00:09:10.576Z,31.40
2023-03-26T00:11:38.790Z,28.55
2023-03-26T00:14:07.179Z,36.58
2023-03-26T00:16:35.403Z,16.23
2023-03-26T00:19:04.173Z,19.98
2023-03-26T00:21:33.798Z,18.05
2023-03-26T00:24:04.879Z,20.15
2023-03-26T00:26:33.815Z,28.08
2023-03-26T00:29:04.023Z,21.77
2023-03-26T00:31:32.611Z,26.17
2023-03-26T00:34:03.649Z,23.10
2023-03-26T00:36:35.823Z,26.55
2023-03-26T00:39:05.729Z,24.75
2023-03-26T00:41:37.159Z,31.13
2023-03-26T00:44:05.560Z,29.27
2023-03-26T00:46:33.787Z,26.13
2023-03-26T00:49:03.852Z,27.42
2023-03-26T00:51:34.139Z,30.40
2023-03-26T00:54:03.383Z,24.65
2023-03-26T00:56:31.772Z,15.48
2023-03-26T00:59:00.313Z,16.70
2023-03-26T01:01:30.512Z,26.33
2023-03-26T01:04:08.882Z,30.45
2023-03-26T01:06:42.349Z,35.30
2023-03-26T01:09:17.297Z,34.55
2023-03-26T01:11:46.429Z,27.75
2023-03-26T01:14:17.826Z,32.50
2023-03-26T01:16:50.089Z,29.05
2023-03-26T01:19:26.114Z,29.20
2023-03-26T01:21:55.533Z,27.40
2023-03-26T01:24:25.190Z,28.70
2023-03-26T01:27:09.696Z,25.83
2023-03-26T01:29:44.242Z,19.88
2023-03-26T01:32:24.399Z,19.42
2023-03-26T01:35:04.797Z,21.80
2023-03-26T01:37:40.926Z,20.58
2023-03-26T01:40:18.814Z,36.45
2023-03-26T01:42:53.363Z,26.13
2023-03-26T01:45:25.722Z,29.60
2023-03-26T01:47:54.539Z,33.10
2023-03-26T01:50:22.658Z,26.55
2023-03-26T01:52:51.038Z,30.27
2023-03-26T01:55:22.554Z,26.60
2023-03-26T01:58:01.048Z,38.35
2023-03-26T02:00:32.852Z,36.28
2023-03-26T02:03:18.121Z,26.73
2023-03-26T02:05:54.513Z,33.25
2023-03-26T02:08:31.748Z,47.33
2023-03-26T02:11:05.211Z,36.95
2023-03-26T02:13:33.623Z,19.83
2023-03-26T02:16:02.915Z,25.23
2023-03-26T02:18:36.505Z,20.85
2023-03-26T02:21:09.920Z,22.70
2023-03-26T02:23:38.590Z,24.00
2023-03-26T02:26:10.154Z,23.85
2023-03-26T02:28:38.822Z,19.75
2023-03-26T02:31:09.811Z,24.92
2023-03-26T02:33:38.928Z,14.57
2023-03-26T02:36:08.799Z,18.75
2023-03-26T02:38:36.782Z,23.95
2023-03-26T02:41:05.515Z,31.17
2023-03-26T02:43:34.940Z,30.80
2023-03-26T02:46:02.951Z,34.70
2023-03-26T02:48:31.394Z,29.48
2023-03-26T02:50:59.357Z,39.03
2023-03-26T02:53:29.960Z,31.27
2023-03-26T02:55:58.333Z,43.70
2023-03-26T02:58:26.691Z,36.97
2023-03-26T03:00:56.912Z,36.47
2023-03-26T03:03:25.773Z,32.42
2023-03-26T03:05:54.703Z,33.92
2023-03-26T03:08:24.453Z,32.10
2023-03-26T03:11:00.358Z,38.78
2023-03-26T03:13:28.790Z,36.38
2023-03-26T03:15:58.435Z,29.50
2023-03-26T03:18:26.606Z,31.95
2023-03-26T03:20:54.979Z,30.45
2023-03-26T03:23:23.000Z,34.78
2023-03-26T03:25:52.652Z,28.92
2023-03-26T03:28:21.677Z,28.17
2023-03-26T03:30:53.064Z,33.22
2023-03-26T03:33:22.468Z,33.72
2023-03-26T03:35:51.398Z,30.65
2023-03-26T03:38:19.508Z,20.08
2023-03-26T03:40:47.470Z,30.08
2023-03-26T03:43:15.380Z,34.17
2023-03-26T03:45:43.434Z,30.67
2023-03-26T03:48:11.423Z,32.33
2023-03-26T03:50:40.772Z,32.05
2023-03-26T03:53:08.675Z,33.83
2023-03-26T03:55:38.361Z,32.13
2023-03-26T03:58:09.139Z,22.55
2023-03-26T04:00:38.367Z,24.67
2023-03-26T04:03:06.695Z,20.08
2023-03-26T04:05:35.258Z,23.73
2023-03-26T04:08:04.706Z,31.23
2023-03-26T04:10:32.805Z,28.85
2023-03-26T04:13:01.113Z,38.38
2023-03-26T04:15:29.208Z,29.33
2023-03-26T04:17:57.221Z,26.42
2023-03-26T04:20:25.163Z,30.25
2023-03-26T04:22:53.280Z,20.42
2023-03-26T04:25:22.671Z,28.08
2023-03-26T04:27:50.616Z,31.13
2023-03-26T04:30:21.234Z,19.63
2023-03-26T04:32:49.556Z,25.48
2023-03-26T04:35:19.590Z,25.23
2023-03-26T04:37:48.197Z,23.58
2023-03-26T04:40:18.470Z,35.65
2023-03-26T04:42:47.875Z,37.70
2023-03-26T04:45:17.793Z,32.50
2023-03-26T04:47:46.722Z,29.92
2023-03-26T04:50:14.877Z,31.98
2023-03-26T04:52:45.099Z,34.65
2023-03-26T04:55:24.567Z,29.60
2023-03-26T04:57:59.851Z,38.00
2023-03-26T05:00:28.478Z,32.33
2023-03-26T05:02:57.944Z,34.03
2023-03-26T05:05:27.426Z,37.42
2023-03-26T05:07:55.382Z,28.25
2023-03-26T05:10:24.208Z,24.08
2023-03-26T05:12:52.382Z,23.73
2023-03-26T05:15:22.440Z,28.52
2023-03-26T05:17:51.345Z,38.50
2023-03-26T05:20:22.608Z,26.77
2023-03-26T05:22:52.064Z,25.90
2023-03-26T05:25:20.670Z,22.95
2023-03-26T05:27:48.971Z,24.58
2023-03-26T05:30:19.572Z,23.92
2023-03-26T05:32:50.369Z,29.38
2023-03-26T05:35:18.775Z,22.42
2023-03-26T05:37:48.091Z,32.45
2023-03-26T05:40:18.088Z,47.10
2023-03-26T05:42:46.572Z,43.20
2023-03-26T05:45:16.861Z,31.88
2023-03-26T05:47:45.396Z,46.35
2023-03-26T05:50:15.816Z,40.70
2023-03-26T05:52:44.810Z,40.28
2023-03-26T05:55:13.444Z,33.08
2023-03-26T05:57:42.777Z,36.55
2023-03-26T06:00:12.304Z,36.85
2023-03-26T06:02:42.304Z,38.63
2023-03-26T06:05:12.516Z,32.45
2023-03-26T06:07:41.950Z,47.45
2023-03-26T06:10:11.177Z,38.72
2023-03-26T06:12:46.703Z,40.83
2023-03-26T06:15:14.899Z,41.97
2023-03-26T06:17:45.046Z,48.10
2023-03-26T06:20:14.631Z,52.17
2023-03-26T06:22:44.367Z,53.90
2023-03-26T06:25:12.973Z,38.90
2023-03-26T06:27:41.006Z,40.70
2023-03-26T06:30:10.404Z,42.00
2023-03-26T06:32:38.981Z,39.20
2023-03-26T06:35:07.779Z,27.70
2023-03-26T06:37:39.120Z,32.78
2023-03-26T06:40:10.723Z,32.28
2023-03-26T06:43:07.761Z,49.00
2023-03-26T06:45:27.700Z,42.03
2023-03-26T06:47:56.116Z,46.08
2023-03-26T06:50:25.141Z,38.47
2023-03-26T06:52:55.083Z,40.15
2023-03-26T06:55:25.048Z,31.25
2023-03-26T06:57:54.537Z,31.55
2023-03-26T07:00:23.105Z,33.42
2023-03-26T07:02:51.214Z,41.45
2023-03-26T07:05:19.357Z,45.45
2023-03-26T07:07:48.455Z,32.13
2023-03-26T07:10:16.574Z,38.85
2023-03-26T07:12:46.084Z,47.10
2023-03-26T07:15:14.362Z,42.38
2023-03-26T07:17:42.387Z,43.45
2023-03-26T07:20:11.601Z,41.47
2023-03-26T07:22:40.228Z,33.35
2023-03-26T07:25:09.950Z,33.83
2023-03-26T07:27:45.633Z,33.28
2023-03-26T07:30:17.784Z,26.58
2023-03-26T07:32:58.639Z,30.17
2023-03-26T07:35:31.612Z,43.47
2023-03-26T07:38:16.599Z,52.05
2023-03-26T07:40:58.448Z,36.30
2023-03-26T07:43:40.661Z,41.22
2023-03-26T07:46:13.278Z,35.85
2023-03-26T07:48:43.820Z,30.55
2023-03-26T07:51:13.204Z,34.38
2023-03-26T07:53:48.035Z,27.45
2023-03-26T07:56:18.443Z,28.55
2023-03-26T07:58:58.696Z,40.33
2023-03-26T08:01:43.576Z,30.67
2023-03-26T08:04:43.943Z,37.50
2023-03-26T08:07:20.947Z,40.47
2023-03-26T08:10:01.192Z,32.28
2023-03-26T08:12:39.093Z,39.30
2023-03-26T08:15:15.159Z,42.08
2023-03-26T08:17:49.445Z,40.00
2023-03-26T08:20:32.157Z,36.70
2023-03-26T08:23:07.524Z,34.78
2023-03-26T08:25:38.175Z,35.67
2023-03-26T08:28:17.876Z,27.20
2023-03-26T08:30:47.151Z,32.42
2023-03-26T08:33:20.632Z,45.90
2023-03-26T08:35:50.124Z,34.65
2023-03-26T08:38:20.597Z,38.30
2023-03-26T08:41:25.293Z,48.88
2023-03-26T08:44:50.285Z,44.28
2023-03-26T08:47:55.747Z,50.13
2023-03-26T08:51:05.248Z,48.78
2023-03-26T08:54:20.779Z,39.67
2023-03-26T08:57:00.216Z,56.55
2023-03-26T09:00:06.742Z,35.78
2023-03-26T09:03:00.605Z,34.85
2023-03-26T09:05:54.908Z,36.03
2023-03-26T09:09:01.565Z,44.33
2023-03-26T09:12:03.062Z,39.05
2023-03-26T09:15:10.254Z,43.78
2023-03-26T09:18:31.514Z,33.13
2023-03-26T09:21:44.554Z,31.65
2023-03-26T09:24:38.986Z,38.38
2023-03-26T09:27:16.693Z,41.22
2023-03-26T09:30:36.952Z,51.78
2023-03-26T09:33:22.830Z,41.13
2023-03-26T09:35:56.465Z,43.67
2023-03-26T09:38:43.496Z,35.20
2023-03-26T09:41:18.029Z,26.13
2023-03-26T09:44:14.380Z,34.05
2023-03-26T09:46:54.739Z,36.17
2023-03-26T09:49:39.653Z,37.10
2023-03-26T09:52:21.759Z,33.60
2023-03-26T09:55:43.536Z,23.92
2023-03-26T09:58:35.623Z,30.67
2023-03-26T10:01:11.170Z,33.25
2023-03-26T10:03:49.699Z,29.65
2023-03-26T10:06:34.416Z,31.45
2023-03-26T10:09:22.060Z,33.08
2023-03-26T10:12:06.166Z,28.10
2023-03-26T10:14:42.283Z,28.35
2023-03-26T10:17:28.858Z,19.70
2023-03-26T10:20:13.497Z,29.02
2023-03-26T10:22:54.045Z,22.63
2023-03-26T10:25:40.083Z,27.20
2023-03-26T10:28:24.821Z,24.88
2023-03-26T10:31:09.943Z,27.92
2023-03-26T10:33:52.302Z,21.52
2023-03-26T10:36:30.942Z,39.85
2023-03-26T10:39:37.836Z,33.92
2023-03-26T10:42:21.241Z,25.17
2023-03-26T10:45:11.055Z,27.15
2023-03-26T10:48:14.770Z,36.75
2023-03-26T10:50:55.274Z,27.25
2023-03-26T10:53:37.373Z,22.83
2023-03-26T10:56:15.852Z,21.52
2023-03-26T10:58:48.543Z,17.23
2023-03-26T11:01:25.283Z,26.35
2023-03-26T11:03:56.625Z,32.83
2023-03-26T11:06:33.627Z,38.85
2023-03-26T11:09:16.316Z,33.92
2023-03-26T11:11:48.855Z,23.35
2023-03-26T11:14:33.819Z,33.53
2023-03-26T11:17:14.801Z,25.75
2023-03-26T11:20:06.285Z,22.98
2023-03-26T11:22:45.383Z,30.15
2023-03-26T11:25:35.887Z,15.13
2023-03-26T11:28:24.669Z,22.20
2023-03-26T11:31:00.249Z,15.45
2023-03-26T11:33:34.088Z,13.77
2023-03-26T11:36:07.900Z,19.95
2023-03-26T11:38:40.313Z,19.23
2023-03-26T11:41:16.103Z,22.92
2023-03-26T11:43:57.678Z,23.35
2023-03-26T11:46:28.600Z,34.15
2023-03-26T11:48:59.906Z,15.90
2023-03-26T11:51:36.301Z,21.42
2023-03-26T11:54:06.473Z,20.65
2023-03-26T11:56:38.968Z,20.58
2023-03-26T11:59:25.895Z,30.90
2023-03-26T12:01:58.620Z,35.65
2023-03-26T12:04:30.690Z,21.25
2023-03-26T12:07:10.935Z,22.70
2023-03-26T12:09:39.394Z,19.58
2023-03-26T12:12:08.149Z,30.55
2023-03-26T12:14:36.441Z,27.67
2023-03-26T12:17:09.332Z,29.05
2023-03-26T12:19:40.906Z,15.02
2023-03-26T12:22:30.314Z,31.60
2023-03-26T12:25:16.712Z,20.98
2023-03-26T12:27:46.483Z,26.85
2023-03-26T12:30:22.545Z,31.13
2023-03-26T12:32:53.334Z,30.05
2023-03-26T12:35:27.384Z,38.75
2023-03-26T12:38:13.770Z,30.15
2023-03-26T12:40:43.088Z,26.73
2023-03-26T12:44:54.325Z,32.03
2023-03-26T12:47:54.538Z,33.47
2023-03-26T12:49:17.560Z,22.00
2023-03-26T12:51:51.863Z,32.47
2023-03-26T12:54:47.157Z,24.10
2023-03-26T12:57:22.841Z,20.33
2023-03-26T13:00:10.968Z,21.00
2023-03-26T13:03:13.380Z,27.73
2023-03-26T13:05:55.820Z,23.10
2023-03-26T13:08:46.859Z,22.25
2023-03-26T13:11:24.753Z,20.17
2023-03-26T13:14:20.515Z,19.42
2023-03-26T13:16:57.085Z,25.52
2023-03-26T13:19:34.307Z,24.75
2023-03-26T13:22:16.777Z,33.15
2023-03-26T13:24:52.906Z,24.75
2023-03-26T13:27:36.806Z,22.17
2023-03-26T13:30:16.447Z,22.63
2023-03-26T13:32:59.477Z,19.17
2023-03-26T13:35:34.562Z,18.33
2023-03-26T13:38:13.139Z,23.83
2023-03-26T13:40:52.803Z,19.27
2023-03-26T13:43:33.752Z,29.30
2023-03-26T13:46:08.663Z,37.92
2023-03-26T13:48:43.090Z,31.48
2023-03-26T13:51:16.739Z,29.77
2023-03-26T13:53:54.520Z,32.13
2023-03-26T13:56:27.991Z,30.10
2023-03-26T13:59:01.709Z,30.10
2023-03-26T14:01:35.297Z,22.65
2023-03-26T14:04:09.630Z,39.88
2023-03-26T14:06:46.580Z,26.35
2023-03-26T14:09:20.760Z,31.48
2023-03-26T14:11:59.395Z,34.45
2023-03-26T14:14:38.529Z,30.45
2023-03-26T14:17:15.059Z,32.17
2023-03-26T14:20:22.051Z,35.10
2023-03-26T14:23:06.338Z,38.13
2023-03-26T14:25:51.220Z,39.50
2023-03-26T14:28:44.151Z,42.95
2023-03-26T14:31:23.806Z,25.77
2023-03-26T14:34:07.141Z,35.35
2023-03-26T14:37:05.939Z,29.00
2023-03-26T14:39:55.560Z,23.33
2023-03-26T14:42:31.118Z,29.63
2023-03-26T14:45:26.567Z,24.58
2023-03-26T14:48:18.575Z,20.50
2023-03-26T14:51:03.044Z,29.55
2023-03-26T14:53:34.557Z,22.92
2023-03-26T14:56:35.943Z,21.45
2023-03-26T14:59:32.747Z,30.70
2023-03-26T15:02:36.862Z,25.45
2023-03-26T15:05:42.394Z,24.58
2023-03-26T15:08:46.092Z,31.30
2023-03-26T15:11:25.951Z,23.90
2023-03-26T15:14:05.336Z,25.33
2023-03-26T15:17:09.640Z,25.45
2023-03-26T15:20:05.395Z,27.95
2023-03-26T15:23:07.884Z,25.27
2023-03-26T15:26:31.689Z,28.85
2023-03-26T15:29:27.122Z,24.05
2023-03-26T15:32:22.380Z,28.38
2023-03-26T15:35:33.454Z,30.10
2023-03-26T15:38:38.548Z,33.22
2023-03-26T15:41:20.237Z,29.25
2023-03-26T15:44:25.654Z,32.63
2023-03-26T15:47:13.280Z,27.35
2023-03-26T15:49:44.308Z,41.33
2023-03-26T15:52:25.205Z,38.25
2023-03-26T15:55:02.462Z,33.35
2023-03-26T15:57:34.614Z,35.03
2023-03-26T16:00:22.828Z,37.83
2023-03-26T16:03:17.649Z,39.97
2023-03-26T16:06:14.330Z,44.22
2023-03-26T16:08:53.156Z,39.22
2023-03-26T16:11:54.329Z,34.38
2023-03-26T16:14:24.809Z,34.22
2023-03-26T16:16:57.544Z,34.22
2023-03-26T16:19:59.504Z,32.90
2023-03-26T16:22:43.853Z,29.02
2023-03-26T16:25:30.654Z,34.95
2023-03-26T16:28:23.509Z,32.22
2023-03-26T16:31:37.554Z,41.88
2023-03-26T16:34:27.499Z,44.05
2023-03-26T16:36:56.145Z,45.45
2023-03-26T16:39:26.456Z,48.30
2023-03-26T16:42:06.220Z,44.63
2023-03-26T16:44:50.134Z,39.50
2023-03-26T16:47:26.481Z,42.22
2023-03-26T16:50:13.415Z,35.72
2023-03-26T16:52:51.978Z,34.63
2023-03-26T16:55:26.519Z,42.80
2023-03-26T16:57:59.344Z,31.05
2023-03-26T17:00:44.965Z,50.58
2023-03-26T17:03:29.122Z,47.53
2023-03-26T17:06:06.570Z,38.35
2023-03-26T17:08:48.078Z,32.00
2023-03-26T17:11:30.371Z,18.05
2023-03-26T17:14:07.429Z,23.92
2023-03-26T17:16:41.692Z,22.40
2023-03-26T17:19:24.224Z,49.53
2023-03-26T17:22:04.572Z,13.50
2023-03-26T17:24:44.308Z,22.08
2023-03-26T17:27:27.915Z,19.73
2023-03-26T17:30:05.450Z,21.75
2023-03-26T17:32:56.646Z,21.33
2023-03-26T17:35:40.781Z,25.48
2023-03-26T17:38:51.195Z,32.80
2023-03-26T17:41:52.233Z,30.90
2023-03-26T17:44:38.791Z,29.17
2023-03-26T17:47:15.297Z,24.48
2023-03-26T17:49:45.703Z,21.65
2023-03-26T17:52:19.691Z,19.70
2023-03-26T17:54:52.054Z,35.45
2023-03-26T17:57:24.859Z,34.50
2023-03-26T17:59:58.479Z,41.63
2023-03-26T18:02:36.113Z,27.70
2023-03-26T18:05:09.655Z,37.45
2023-03-26T18:08:11.147Z,29.90
2023-03-26T18:11:07.890Z,31.52
2023-03-26T18:14:09.403Z,20.25
2023-03-26T18:16:41.360Z,23.90
2023-03-26T18:19:18.417Z,21.52
2023-03-26T18:21:50.515Z,17.58
2023-03-26T18:24:21.840Z,15.13
2023-03-26T18:26:56.116Z,24.92
2023-03-26T18:29:25.450Z,30.38
2023-03-26T18:32:00.619Z,25.45
2023-03-26T18:34:31.579Z,32.13
2023-03-26T18:37:14.860Z,32.60
2023-03-26T18:39:43.094Z,31.40
2023-03-26T18:42:23.578Z,33.03
2023-03-26T18:44:54.428Z,31.50
2023-03-26T18:47:30.141Z,26.17
2023-03-26T18:49:59.537Z,19.45
2023-03-26T18:52:31.371Z,19.67
2023-03-26T18:55:00.940Z,23.40
2023-03-26T18:57:31.462Z,21.33
2023-03-26T19:00:18.711Z,19.27
2023-03-26T19:02:49.842Z,17.83
2023-03-26T19:05:20.121Z,27.63
2023-03-26T19:07:49.009Z,20.63
2023-03-26T19:10:22.155Z,23.85
2023-03-26T19:12:59.542Z,28.92
2023-03-26T19:15:29.483Z,25.92
2023-03-26T19:18:07.075Z,28.48
2023-03-26T19:20:46.731Z,32.92
2023-03-26T19:23:17.852Z,29.33
2023-03-26T19:25:48.992Z,26.27
2023-03-26T19:28:21.604Z,23.77
2023-03-26T19:30:56.535Z,26.42
2023-03-26T19:33:26.225Z,21.75
2023-03-26T19:36:03.444Z,21.05
2023-03-26T19:38:41.451Z,20.23
2023-03-26T19:41:21.502Z,20.15
2023-03-26T19:43:51.969Z,20.80
2023-03-26T19:46:22.687Z,30.50
2023-03-26T19:48:53.365Z,28.08
2023-03-26T19:51:24.161Z,27.98
2023-03-26T19:53:56.591Z,18.83
2023-03-26T19:56:29.999Z,13.48
2023-03-26T19:58:59.816Z,8.27
2023-03-26T20:01:30.143Z,13.88
2023-03-26T20:04:02.078Z,13.38
2023-03-26T20:06:42.443Z,16.92
2023-03-26T20:09:12.153Z,21.83
2023-03-26T20:11:40.911Z,22.52
2023-03-26T20:14:17.102Z,21.23
2023-03-26T20:16:46.364Z,15.63
2023-03-26T20:19:16.749Z,18.30
2023-03-26T20:21:46.010Z,16.33
2023-03-26T20:24:16.892Z,18.75
2023-03-26T20:26:45.401Z,20.40
2023-03-26T20:29:19.830Z,19.60
2023-03-26T20:31:48.627Z,18.88
2023-03-26T20:34:19.984Z,23.10
2023-03-26T20:36:54.484Z,23.45
2023-03-26T20:39:22.988Z,24.58
2023-03-26T20:41:55.151Z,17.60
2023-03-26T20:44:29.209Z,21.38
2023-03-26T20:46:59.126Z,23.05
2023-03-26T20:49:29.464Z,20.85
2023-03-26T20:51:57.822Z,18.90
2023-03-26T20:54:27.397Z,15.77
2023-03-26T20:56:55.441Z,23.73
2023-03-26T20:59:27.801Z,14.43
2023-03-26T21:01:59.230Z,15.57
2023-03-26T21:04:28.270Z,13.20
2023-03-26T21:07:07.135Z,20.02
2023-03-26T21:09:39.722Z,17.38
2023-03-26T21:12:09.939Z,10.93
2023-03-26T21:14:44.415Z,13.98
2023-03-26T21:17:18.747Z,10.32
2023-03-26T21:19:47.697Z,17.00
2023-03-26T21:22:28.989Z,10.65
2023-03-26T21:25:06.228Z,18.42
2023-03-26T21:27:46.115Z,17.92
2023-03-26T21:30:17.722Z,14.77
2023-03-26T21:32:47.017Z,19.48
2023-03-26T21:35:16.274Z,28.15
2023-03-26T21:37:48.666Z,23.17
2023-03-26T21:40:18.696Z,22.80
2023-03-26T21:42:48.396Z,30.05
2023-03-26T21:45:19.678Z,28.08
2023-03-26T21:47:48.850Z,25.75
2023-03-26T21:50:19.368Z,21.42
2023-03-26T21:52:48.438Z,22.52
2023-03-26T21:55:18.881Z,29.80
2023-03-26T21:58:16.790Z,20.75
2023-03-26T22:00:59.181Z,24.65
2023-03-26T22:03:38.244Z,17.92
2023-03-26T22:06:11.660Z,27.45
2023-03-26T22:08:41.608Z,22.85
2023-03-26T22:11:11.252Z,20.50
2023-03-26T22:13:39.379Z,22.05
2023-03-26T22:16:11.755Z,32.63
2023-03-26T22:18:39.665Z,22.33
2023-03-26T22:21:07.925Z,21.27
2023-03-26T22:23:36.635Z,20.08
2023-03-26T22:26:05.893Z,21.40
2023-03-26T22:28:33.910Z,29.98
2023-03-26T22:31:09.195Z,22.40
2023-03-26T22:33:37.315Z,21.30
2023-03-26T22:36:05.946Z,24.48
2023-03-26T22:38:54.337Z,12.75
2023-03-26T22:41:22.556Z,22.52
2023-03-26T22:43:52.227Z,21.75
2023-03-26T22:46:22.541Z,21.70
2023-03-26T22:48:51.397Z,17.45
2023-03-26T22:51:19.989Z,19.08
2023-03-26T22:53:48.469Z,27.90
2023-03-26T22:56:17.301Z,26.45
2023-03-26T22:58:47.777Z,21.75
2023-03-26T23:01:18.913Z,16.17
2023-03-26T23:03:48.397Z,23.17
2023-03-26T23:06:17.238Z,28.33
2023-03-26T23:08:45.677Z,26.50
2023-03-26T23:11:16.241Z,18.52
2023-03-26T23:13:45.644Z,20.23
2023-03-26T23:16:14.890Z,23.27
2023-03-26T23:18:43.349Z,31.75
2023-03-26T23:21:17.096Z,18.90
2023-03-26T23:23:45.694Z,25.60
2023-03-26T23:26:14.563Z,24.13
2023-03-26T23:28:43.388Z,36.60
2023-03-26T23:31:13.090Z,29.17
2023-03-26T23:33:46.209Z,37.83
2023-03-26T23:36:18.934Z,23.50
2023-03-26T23:38:48.586Z,26.90
2023-03-26T23:41:17.995Z,18.48
2023-03-26T23:43:54.286Z,31.13
2023-03-26T23:46:25.051Z,21.23
2023-03-26T23:48:55.114Z,31.35
2023-03-26T23:51:24.984Z,31.23
2023-03-26T23:53:53.950Z,27.35
2023-03-26T23:56:22.224Z,24.70
2023-03-26T23:58:50.152Z,23.80
